createdAt,value
2022-12-08T00:04:18.754Z,82.67
2022-12-08T00:09:25.956Z,82.48
2022-12-08T00:14:40.175Z,82.28
2022-12-08T00:19:51.143Z,82.51
2022-12-08T00:24:58.588Z,82.43
2022-12-08T00:30:06.784Z,81.88
2022-12-08T00:35:11.963Z,81.62
2022-12-08T00:40:19.157Z,81.77
2022-12-08T00:45:26.409Z,81.63
2022-12-08T00:50:35.602Z,82.46
2022-12-08T00:55:40.814Z,82.30
2022-12-08T01:00:48.014Z,81.88
2022-12-08T01:05:54.180Z,81.34
2022-12-08T01:10:59.388Z,81.41
2022-12-08T01:16:06.579Z,81.90
2022-12-08T01:21:12.767Z,82.10
2022-12-08T01:26:23.737Z,82.41
2022-12-08T01:31:34.567Z,82.72
2022-12-08T01:36:40.419Z,82.69
2022-12-08T01:42:04.838Z,83.05
2022-12-08T01:47:11.917Z,83.33
2022-12-08T01:52:25.093Z,83.84
2022-12-08T01:57:36.336Z,83.76
2022-12-08T02:02:52.583Z,83.43
2022-12-08T02:07:58.779Z,83.69
2022-12-08T02:13:04.922Z,84.06
2022-12-08T02:18:34.211Z,84.47
2022-12-08T02:23:53.358Z,84.00
2022-12-08T02:29:16.972Z,84.34
2022-12-08T02:34:40.838Z,83.99
2022-12-08T02:39:55.218Z,84.63
2022-12-08T02:45:06.502Z,84.64
2022-12-08T02:50:16.722Z,84.36
2022-12-08T02:55:36.889Z,83.85
2022-12-08T03:00:56.134Z,83.70
2022-12-08T03:06:19.545Z,83.67
2022-12-08T03:11:27.681Z,83.76
2022-12-08T03:16:40.182Z,83.63
2022-12-08T03:21:51.088Z,83.57
2022-12-08T03:27:00.295Z,82.27
2022-12-08T03:32:13.490Z,82.32
2022-12-08T03:37:24.716Z,82.28
2022-12-08T03:42:28.758Z,82.43
2022-12-08T03:47:33.068Z,82.38
2022-12-08T03:52:39.275Z,82.16
2022-12-08T03:57:45.507Z,81.28
2022-12-08T04:02:49.684Z,81.56
2022-12-08T04:08:02.945Z,81.66
2022-12-08T04:13:07.030Z,81.26
2022-12-08T04:18:13.246Z,81.20
2022-12-08T04:23:21.215Z,80.86
2022-12-08T04:28:31.702Z,80.86
2022-12-08T04:33:38.838Z,80.48
2022-12-08T04:38:48.087Z,80.25
2022-12-08T04:43:54.255Z,80.21
2022-12-08T04:48:58.490Z,79.94
2022-12-08T04:54:04.661Z,79.94
2022-12-08T04:59:09.046Z,80.15
2022-12-08T05:04:13.948Z,79.44
2022-12-08T05:09:23.245Z,79.22
2022-12-08T05:14:27.425Z,79.26
2022-12-08T05:19:32.197Z,79.59
2022-12-08T05:24:47.054Z,79.13
2022-12-08T05:29:52.080Z,79.28
2022-12-08T05:35:04.094Z,79.09
2022-12-08T05:40:12.452Z,78.61
2022-12-08T05:45:19.635Z,78.66
2022-12-08T05:50:28.860Z,78.82
2022-12-08T05:55:37.038Z,78.84
2022-12-08T06:00:42.993Z,78.33
2022-12-08T06:05:51.306Z,78.39
2022-12-08T06:11:02.718Z,78.33
2022-12-08T06:16:11.936Z,78.56
2022-12-08T06:21:24.089Z,78.21
2022-12-08T06:26:37.304Z,77.62
2022-12-08T06:31:43.867Z,77.46
2022-12-08T06:36:49.683Z,77.42
2022-12-08T06:42:13.954Z,77.59
2022-12-08T06:47:26.047Z,77.96
2022-12-08T06:52:33.184Z,78.59
2022-12-08T06:57:38.535Z,78.57
2022-12-08T07:02:45.026Z,78.73
2022-12-08T07:07:58.740Z,78.60
2022-12-08T07:13:05.175Z,78.31
2022-12-08T07:18:09.351Z,78.21
2022-12-08T07:23:14.558Z,78.34
2022-12-08T07:28:39.787Z,78.21
2022-12-08T07:33:44.989Z,78.18
2022-12-08T07:38:54.185Z,77.66
2022-12-08T07:44:01.359Z,78.27
2022-12-08T07:49:05.555Z,78.68
2022-12-08T07:54:14.790Z,78.70
2022-12-08T07:59:21.971Z,79.13
2022-12-08T08:04:29.204Z,77.98
2022-12-08T08:09:36.367Z,77.45
2022-12-08T08:14:43.537Z,77.38
2022-12-08T08:19:48.737Z,77.22
2022-12-08T08:24:58.957Z,77.09
2022-12-08T08:30:09.440Z,77.05
2022-12-08T08:35:19.354Z,77.03
2022-12-08T08:40:29.440Z,77.17
2022-12-08T08:45:37.633Z,76.72
2022-12-08T08:50:44.495Z,76.40
2022-12-08T08:55:51.043Z,76.10
2022-12-08T09:00:58.243Z,76.35
2022-12-08T09:06:03.630Z,76.23
2022-12-08T09:11:10.764Z,76.50
2022-12-08T09:16:19.059Z,76.51
2022-12-08T09:21:27.153Z,75.57
2022-12-08T09:26:31.322Z,75.71
2022-12-08T09:31:41.612Z,74.50
2022-12-08T09:36:46.745Z,73.67
2022-12-08T09:41:56.925Z,73.65
2022-12-08T09:47:08.335Z,73.28
2022-12-08T09:52:24.399Z,74.04
2022-12-08T09:57:28.532Z,73.35
2022-12-08T10:02:36.757Z,73.31
2022-12-08T10:07:52.095Z,73.01
2022-12-08T10:13:02.203Z,72.64
2022-12-08T10:18:25.076Z,72.07
2022-12-08T10:23:37.934Z,71.79
2022-12-08T10:28:45.144Z,71.67
2022-12-08T10:33:59.808Z,71.36
2022-12-08T10:39:06.346Z,71.28
2022-12-08T10:44:18.562Z,70.27
2022-12-08T10:49:32.792Z,70.05
2022-12-08T10:54:38.995Z,70.73
2022-12-08T10:59:46.195Z,70.72
2022-12-08T11:05:03.431Z,71.04
2022-12-08T11:10:09.610Z,71.58
2022-12-08T11:15:27.045Z,72.05
2022-12-08T11:20:41.102Z,72.42
2022-12-08T11:25:45.293Z,72.42
2022-12-08T11:30:52.490Z,71.94
2022-12-08T11:36:18.889Z,71.87
2022-12-08T11:41:30.608Z,71.19
2022-12-08T11:47:15.383Z,71.35
2022-12-08T11:52:28.612Z,71.09
2022-12-08T11:57:32.550Z,70.63
2022-12-08T12:02:42.772Z,70.76
2022-12-08T12:08:08.577Z,70.63
2022-12-08T12:13:38.860Z,70.99
2022-12-08T12:18:53.729Z,70.84
2022-12-08T12:24:04.235Z,69.95
2022-12-08T12:29:13.233Z,70.90
2022-12-08T12:34:48.866Z,70.77
2022-12-08T12:40:04.892Z,70.82
2022-12-08T12:45:43.511Z,72.73
2022-12-08T12:50:56.933Z,74.03
2022-12-08T12:56:37.221Z,74.81
2022-12-08T13:02:03.996Z,75.90
2022-12-08T13:07:07.791Z,76.47
2022-12-08T13:12:25.498Z,77.68
2022-12-08T13:17:32.066Z,77.86
2022-12-08T13:23:13.935Z,79.17
2022-12-08T13:28:28.335Z,78.70
2022-12-08T13:33:47.751Z,79.45
2022-12-08T13:39:00.920Z,79.72
2022-12-08T13:51:07.016Z,80.17
2022-12-08T14:01:16.365Z,80.47
2022-12-08T14:06:35.790Z,81.77
2022-12-08T14:17:49.751Z,82.05
2022-12-08T14:22:53.869Z,81.78
2022-12-08T14:28:04.723Z,81.48
2022-12-08T14:38:27.480Z,81.28
2022-12-08T14:43:32.311Z,81.68
2022-12-08T14:48:44.872Z,81.03
2022-12-08T14:53:55.907Z,79.92
2022-12-08T14:59:11.823Z,78.65
2022-12-08T15:04:20.330Z,78.34
2022-12-08T15:09:36.688Z,79.39
2022-12-08T15:14:43.243Z,79.12
2022-12-08T15:19:57.302Z,79.14
2022-12-08T15:25:02.449Z,79.27
2022-12-08T15:30:06.832Z,79.08
2022-12-08T15:35:15.049Z,78.56
2022-12-08T15:40:21.070Z,78.53
2022-12-08T15:45:29.668Z,77.78
2022-12-08T15:50:32.922Z,78.09
2022-12-08T15:55:39.152Z,78.46
2022-12-08T16:00:52.286Z,79.21
2022-12-08T16:06:50.796Z,79.01
2022-12-08T16:17:15.650Z,79.59
2022-12-08T16:28:12.276Z,80.28
2022-12-08T16:33:09.428Z,80.76
2022-12-08T16:38:16.280Z,80.70
2022-12-08T16:43:21.015Z,80.83
2022-12-08T16:48:24.226Z,80.49
2022-12-08T16:53:27.522Z,81.35
2022-12-08T16:58:32.136Z,81.36
2022-12-08T17:03:35.347Z,81.39
2022-12-08T17:08:41.966Z,81.30
2022-12-08T17:13:46.727Z,80.52
2022-12-08T17:18:51.145Z,80.42
2022-12-08T17:23:56.324Z,80.48
2022-12-08T17:29:03.646Z,81.25
2022-12-08T17:34:12.763Z,81.14
